Famagusta, Cyprus
Current Conditions -  °F | °C
As of 11:50 PM on Thursday 20 Nov 2014 (Local Time) from LCEN Reporting Station
Broken Clouds Broken Clouds  
Wind Chill: 59°   Ceiling: 20000
Heat Index: 59°   Visibility: 6mi
Dew Point: 52°   Wind: 10mph
Humidity: 77%   Direction: 280°W
Pressure: 29.94"   Gusts: NA
Location:  35.33°N, 34.07°E
Report Text: LCEN 202050Z 28009KT 9999 FEW025CB BKN200 15/11 Q1014
Loading
Personal Weather Stations






























Interactive Weather Map New forecast layout! Learn more

10-Day Weather Forecast

Advertisements
Track Severe Weather on mobile